Current | Forecast
Updated: 1:50 PM CEST on June 23, 2017
Observed at Lahr, Germany
Temperature 29°C
Humidity 48%
Dew Point 17°C
Wind West at 20 km/h
Pressure 1017 hPa (Steady)
Conditions Clear
Visibility -
UV N/A
Clouds
Yesterday's Maximum 34°C
Yesterday's Minimum 23°C approx.
Yesterday's Cooling Degree Days 18 approx.
Sunrise5:25 AM CEST
Sunset9:29 PM CEST
Moon Rise5:03 AM CEST
Moon Set8:36 PM CEST
Moon PhaseMoon Phase
Waning Crescent
Raw METARMETAR EDTL 231150Z 27011KT 230V320 CAVOK 29/17 Q1017


Monday
. High: 62° F.
Tuesday
. High: 60° F.
Wednesday
. High: 66° F.
Thursday
. High: 59° F.
Friday
. High: 60° F.
Saturday
. High: 66° F.
Sunday
. High: 64° F.
Monday
. High: 60° F.

Units: English | Metric

Find the Weather for any City, State or Zipcode, or Country:

U.S. State List | Severe Weather | Tropical Storms | Ski Conditions
United States | Canada | Central America | South America | Asia | Europe | Australia | Africa | Islands

Weather Underground

© Copyright 2017
The Weather Company, LLC